Time,TemperatureF,DewpointF,PressureIn,WindDirection,WindDirectionDegrees,WindSpeedMPH,WindSpeedGustMPH,Humidity,HourlyPrecipIn,Conditions,Clouds,dailyrainin,SoftwareType,DateUTC
2013-01-18 00:00:00,29.8,20.3,30.04,NW,310,0.0,0.0,67,0.00,,,0.00,meteohub,2013-01-18 05:00:00,
2013-01-18 00:01:00,29.7,20.5,30.04,NW,310,0.0,0.0,68,0.00,,,0.00,meteohub,2013-01-18 05:01:00,
2013-01-18 00:02:00,29.7,20.5,30.05,NW,310,0.0,0.0,68,0.00,,,0.00,meteohub,2013-01-18 05:02:00,
2013-01-18 00:03:00,29.7,20.5,30.05,NW,310,0.0,0.0,68,0.00,,,0.00,meteohub,2013-01-18 05:03:00,
2013-01-18 00:08:00,29.7,20.1,30.07,NW,310,0.0,0.0,67,0.00,,,0.00,meteohub,2013-01-18 05:08:00,
2013-01-18 00:13:00,29.7,20.1,30.07,NW,310,0.0,0.0,67,0.00,,,0.00,meteohub,2013-01-18 05:13:00,
2013-01-18 00:18:00,29.5,19.6,30.06,NW,310,0.0,0.0,66,0.00,,,0.00,meteohub,2013-01-18 05:18:00,
2013-01-18 00:24:00,29.5,19.2,30.05,NW,310,0.0,0.0,65,0.00,,,0.00,meteohub,2013-01-18 05:24:00,
2013-01-18 00:29:00,29.3,18.7,30.05,NW,310,0.0,0.0,64,0.00,,,0.00,meteohub,2013-01-18 05:29:00,
2013-01-18 00:34:00,29.1,18.5,30.06,NW,310,0.0,0.0,64,0.00,,,0.00,meteohub,2013-01-18 05:34:00,
2013-01-18 00:39:00,29.1,18.1,30.06,NW,310,0.0,0.0,63,0.00,,,0.00,meteohub,2013-01-18 05:39:00,
2013-01-18 00:44:00,29.1,18.9,30.06,NW,310,0.0,0.0,65,0.00,,,0.00,meteohub,2013-01-18 05:44:00,
2013-01-18 00:49:00,29.1,18.9,30.05,NW,310,0.0,0.0,65,0.00,,,0.00,meteohub,2013-01-18 05:49:00,
2013-01-18 00:54:00,28.9,18.7,30.05,NW,310,0.0,0.0,65,0.00,,,0.00,meteohub,2013-01-18 05:54:00,
2013-01-18 01:00:00,28.9,19.0,30.05,NW,310,0.0,0.0,66,0.00,,,0.00,meteohub,2013-01-18 06:00:00,
2013-01-18 01:05:00,28.9,18.7,30.03,NW,310,0.0,0.0,65,0.00,,,0.00,meteohub,2013-01-18 06:05:00,
2013-01-18 01:10:00,28.8,18.9,30.05,NW,310,0.0,0.0,66,0.00,,,0.00,meteohub,2013-01-18 06:10:00,
2013-01-18 01:15:00,28.8,18.9,30.06,NW,310,0.0,0.0,66,0.00,,,0.00,meteohub,2013-01-18 06:15:00,
2013-01-18 01:20:00,28.8,19.6,30.07,NW,310,0.0,0.0,68,0.00,,,0.00,meteohub,2013-01-18 06:20:00,
2013-01-18 01:25:00,28.6,18.7,30.07,NW,310,0.0,0.0,66,0.00,,,0.00,meteohub,2013-01-18 06:25:00,
2013-01-18 01:31:00,28.6,19.4,30.07,NW,310,0.0,0.0,68,0.00,,,0.00,meteohub,2013-01-18 06:31:00,
2013-01-18 01:36:00,28.6,19.4,30.07,NW,310,0.0,0.0,68,0.00,,,0.00,meteohub,2013-01-18 06:36:00,
2013-01-18 01:41:00,28.6,19.4,30.06,NW,310,0.0,0.0,68,0.00,,,0.00,meteohub,2013-01-18 06:41:00,
2013-01-18 01:46:00,28.6,19.4,30.08,NW,310,0.0,0.0,68,0.00,,,0.00,meteohub,2013-01-18 06:46:00,
2013-01-18 01:51:00,28.4,19.2,30.09,NW,310,0.0,0.0,68,0.00,,,0.00,meteohub,2013-01-18 06:51:00,
2013-01-18 01:56:00,28.4,19.6,30.09,NW,310,0.0,0.0,69,0.00,,,0.00,meteohub,2013-01-18 06:56:00,
2013-01-18 02:02:00,28.2,19.0,30.09,NW,310,0.0,0.0,68,0.00,,,0.00,meteohub,2013-01-18 07:02:00,
2013-01-18 02:07:00,28.2,18.7,30.10,NW,310,0.0,0.0,67,0.00,,,0.00,meteohub,2013-01-18 07:07:00,
2013-01-18 02:12:00,28.2,18.7,30.10,NW,310,0.0,0.0,67,0.00,,,0.00,meteohub,2013-01-18 07:12:00,
2013-01-18 02:17:00,28.0,18.5,30.09,NW,310,0.0,0.0,67,0.00,,,0.00,meteohub,2013-01-18 07:17:00,
2013-01-18 02:22:00,28.0,18.9,30.07,NW,310,0.0,0.0,68,0.00,,,0.00,meteohub,2013-01-18 07:22:00,
2013-01-18 02:27:00,28.0,19.2,30.09,NW,310,0.0,0.0,69,0.00,,,0.00,meteohub,2013-01-18 07:27:00,
2013-01-18 02:32:00,28.0,18.5,30.10,NW,310,0.0,0.0,67,0.00,,,0.00,meteohub,2013-01-18 07:32:00,
2013-01-18 02:38:00,27.9,18.3,30.09,NW,310,0.0,0.0,67,0.00,,,0.00,meteohub,2013-01-18 07:38:00,
2013-01-18 02:43:00,27.9,18.3,30.08,NW,310,0.0,0.0,67,0.00,,,0.00,meteohub,2013-01-18 07:43:00,
2013-01-18 02:48:00,27.9,18.7,30.08,NW,310,0.0,0.0,68,0.00,,,0.00,meteohub,2013-01-18 07:48:00,
2013-01-18 02:53:00,27.7,18.5,30.09,NW,310,0.0,0.0,68,0.00,,,0.00,meteohub,2013-01-18 07:53:00,
2013-01-18 02:58:00,27.7,18.9,30.07,NW,310,0.0,0.0,69,0.00,,,0.00,meteohub,2013-01-18 07:58:00,
2013-01-18 03:03:00,27.7,18.1,30.07,NW,310,0.0,0.0,67,0.00,,,0.00,meteohub,2013-01-18 08:03:00,
2013-01-18 03:09:00,27.7,17.8,30.08,NW,310,0.0,0.0,66,0.00,,,0.00,meteohub,2013-01-18 08:09:00,
2013-01-18 03:14:00,27.7,18.1,30.08,NW,310,0.0,0.0,67,0.00,,,0.00,meteohub,2013-01-18 08:14:00,
2013-01-18 03:19:00,27.7,17.1,30.10,NW,310,0.0,0.0,64,0.00,,,0.00,meteohub,2013-01-18 08:19:00,
2013-01-18 03:24:00,27.7,17.1,30.10,NW,310,0.0,0.0,64,0.00,,,0.00,meteohub,2013-01-18 08:24:00,
2013-01-18 03:29:00,27.7,17.1,30.09,NW,310,0.0,0.0,64,0.00,,,0.00,meteohub,2013-01-18 08:29:00,
2013-01-18 03:34:00,27.7,17.1,30.09,NW,310,0.0,0.0,64,0.00,,,0.00,meteohub,2013-01-18 08:34:00,
2013-01-18 03:40:00,27.7,17.1,30.10,NW,310,0.0,0.0,64,0.00,,,0.00,meteohub,2013-01-18 08:40:00,
2013-01-18 03:45:00,27.7,17.4,30.10,NW,310,0.0,0.0,65,0.00,,,0.00,meteohub,2013-01-18 08:45:00,
2013-01-18 03:50:00,27.7,17.8,30.10,NW,310,0.0,0.0,66,0.00,,,0.00,meteohub,2013-01-18 08:50:00,
2013-01-18 03:55:00,27.7,17.4,30.09,NW,310,0.0,0.0,65,0.00,,,0.00,meteohub,2013-01-18 08:55:00,
2013-01-18 04:00:00,27.5,17.6,30.10,NW,310,0.0,0.0,66,0.00,,,0.00,meteohub,2013-01-18 09:00:00,
2013-01-18 04:06:00,27.5,17.6,30.11,NW,310,0.0,0.0,66,0.00,,,0.00,meteohub,2013-01-18 09:06:00,
2013-01-18 04:11:00,27.3,17.8,30.11,NW,310,0.0,0.0,67,0.00,,,0.00,meteohub,2013-01-18 09:11:00,
2013-01-18 04:16:00,27.3,18.1,30.11,NW,310,0.0,0.0,68,0.00,,,0.00,meteohub,2013-01-18 09:16:00,
2013-01-18 04:21:00,27.3,18.1,30.11,NW,310,0.0,0.0,68,0.00,,,0.00,meteohub,2013-01-18 09:21:00,
2013-01-18 04:26:00,27.3,17.4,30.12,NW,310,0.0,0.0,66,0.00,,,0.00,meteohub,2013-01-18 09:26:00,
2013-01-18 04:31:00,27.3,18.1,30.12,NW,310,0.0,0.0,68,0.00,,,0.00,meteohub,2013-01-18 09:31:00,
2013-01-18 04:36:00,27.3,18.1,30.12,NW,310,0.0,0.0,68,0.00,,,0.00,meteohub,2013-01-18 09:36:00,
2013-01-18 04:41:00,27.1,18.0,30.12,NW,310,0.0,0.0,68,0.00,,,0.00,meteohub,2013-01-18 09:41:00,
2013-01-18 04:46:00,27.1,17.2,30.12,NW,310,0.0,0.0,66,0.00,,,0.00,meteohub,2013-01-18 09:46:00,
2013-01-18 04:52:00,27.0,16.7,30.12,NW,310,0.0,0.0,65,0.00,,,0.00,meteohub,2013-01-18 09:52:00,
2013-01-18 04:57:00,27.0,17.1,30.13,NW,310,0.0,0.0,66,0.00,,,0.00,meteohub,2013-01-18 09:57:00,
2013-01-18 05:02:00,26.8,16.9,30.13,NW,310,0.0,0.0,66,0.00,,,0.00,meteohub,2013-01-18 10:02:00,
2013-01-18 05:07:00,26.6,16.0,30.14,North,-999,-999.0,0.0,64,0.00,,,0.00,meteohub,2013-01-18 10:07:00,
2013-01-18 05:12:00,26.4,16.3,30.14,NW,310,0.0,0.0,65,0.00,,,0.00,meteohub,2013-01-18 10:12:00,
2013-01-18 05:17:00,26.2,16.5,30.14,NW,310,0.0,0.0,66,0.00,,,0.00,meteohub,2013-01-18 10:17:00,
2013-01-18 05:22:00,26.1,16.0,30.15,NW,310,0.0,0.0,65,0.00,,,0.00,meteohub,2013-01-18 10:22:00,
2013-01-18 05:27:00,26.1,15.6,30.16,NW,310,0.0,0.0,64,0.00,,,0.00,meteohub,2013-01-18 10:27:00,
2013-01-18 05:32:00,25.9,15.8,30.17,NW,310,0.0,0.0,65,0.00,,,0.00,meteohub,2013-01-18 10:32:00,
2013-01-18 05:37:00,25.5,15.1,30.18,NW,310,0.0,0.0,64,0.00,,,0.00,meteohub,2013-01-18 10:37:00,
2013-01-18 05:42:00,25.3,14.9,30.18,NW,310,0.0,0.0,64,0.00,,,0.00,meteohub,2013-01-18 10:42:00,
2013-01-18 05:47:00,25.2,15.1,30.19,NW,310,0.0,0.0,65,0.00,,,0.00,meteohub,2013-01-18 10:47:00,
2013-01-18 05:52:00,25.0,14.2,30.19,NW,310,0.0,0.0,63,0.00,,,0.00,meteohub,2013-01-18 10:52:00,
2013-01-18 05:57:00,24.8,14.4,30.19,NW,310,0.0,0.0,64,0.00,,,0.00,meteohub,2013-01-18 10:57:00,
2013-01-18 06:02:00,24.6,14.2,30.19,NW,310,0.0,0.0,64,0.00,,,0.00,meteohub,2013-01-18 11:02:00,
2013-01-18 06:07:00,24.4,14.0,30.20,NW,310,0.0,0.0,64,0.00,,,0.00,meteohub,2013-01-18 11:07:00,
2013-01-18 06:12:00,24.4,14.0,30.20,NW,310,0.0,0.0,64,0.00,,,0.00,meteohub,2013-01-18 11:12:00,
2013-01-18 06:17:00,24.3,14.2,30.21,NW,310,0.0,0.0,65,0.00,,,0.00,meteohub,2013-01-18 11:17:00,
2013-01-18 06:22:00,24.1,13.6,30.21,NW,310,0.0,0.0,64,0.00,,,0.00,meteohub,2013-01-18 11:22:00,
2013-01-18 06:27:00,24.1,13.6,30.22,NW,310,0.0,0.0,64,0.00,,,0.00,meteohub,2013-01-18 11:27:00,
2013-01-18 06:32:00,23.7,13.3,30.22,NW,310,0.0,0.0,64,0.00,,,0.00,meteohub,2013-01-18 11:32:00,
2013-01-18 06:37:00,23.7,13.3,30.22,NW,310,0.0,0.0,64,0.00,,,0.00,meteohub,2013-01-18 11:37:00,
2013-01-18 06:42:00,23.5,13.5,30.23,NW,310,0.0,0.0,65,0.00,,,0.00,meteohub,2013-01-18 11:42:00,
2013-01-18 06:47:00,23.5,13.5,30.24,NW,310,0.0,0.0,65,0.00,,,0.00,meteohub,2013-01-18 11:47:00,
2013-01-18 06:52:00,23.4,12.9,30.24,NW,310,0.0,0.0,64,0.00,,,0.00,meteohub,2013-01-18 11:52:00,
2013-01-18 06:57:00,23.2,12.7,30.24,NW,310,0.0,0.0,64,0.00,,,0.00,meteohub,2013-01-18 11:57:00,
2013-01-18 07:02:00,23.0,12.9,30.25,NW,310,0.0,0.0,65,0.00,,,0.00,meteohub,2013-01-18 12:02:00,
2013-01-18 07:07:00,22.8,12.6,30.26,NW,310,0.0,0.0,64,0.00,,,0.00,meteohub,2013-01-18 12:07:00,
2013-01-18 07:12:00,22.8,12.6,30.27,NW,310,0.0,0.0,64,0.00,,,0.00,meteohub,2013-01-18 12:12:00,
2013-01-18 07:17:00,22.6,12.7,30.27,NW,310,0.0,0.0,65,0.00,,,0.00,meteohub,2013-01-18 12:17:00,
2013-01-18 07:22:00,22.6,12.4,30.28,NW,310,0.0,0.0,64,0.00,,,0.00,meteohub,2013-01-18 12:22:00,
2013-01-18 07:27:00,22.5,12.2,30.28,NW,310,0.0,0.0,64,0.00,,,0.00,meteohub,2013-01-18 12:27:00,
2013-01-18 07:32:00,22.5,12.6,30.29,NW,310,0.0,0.0,65,0.00,,,0.00,meteohub,2013-01-18 12:32:00,
2013-01-18 07:37:00,22.3,12.0,30.29,NW,310,0.0,0.0,64,0.00,,,0.00,meteohub,2013-01-18 12:37:00,
2013-01-18 07:42:00,22.3,12.0,30.29,NW,310,0.0,0.0,64,0.00,,,0.00,meteohub,2013-01-18 12:42:00,
2013-01-18 07:47:00,22.1,11.8,30.29,NW,310,0.0,0.0,64,0.00,,,0.00,meteohub,2013-01-18 12:47:00,
2013-01-18 07:52:00,22.1,11.8,30.30,NW,310,0.0,0.0,64,0.00,,,0.00,meteohub,2013-01-18 12:52:00,
2013-01-18 07:57:00,22.1,11.8,30.30,NW,310,0.0,0.0,64,0.00,,,0.00,meteohub,2013-01-18 12:57:00,
2013-01-18 08:02:00,22.1,11.1,30.32,NW,310,0.0,0.0,62,0.00,,,0.00,meteohub,2013-01-18 13:02:00,
2013-01-18 08:07:00,22.1,11.5,30.32,NW,310,0.0,0.0,63,0.00,,,0.00,meteohub,2013-01-18 13:07:00,
2013-01-18 08:12:00,22.1,10.8,30.32,NW,310,0.0,0.0,61,0.00,,,0.00,meteohub,2013-01-18 13:12:00,
2013-01-18 08:17:00,22.3,10.6,30.33,NW,310,0.0,0.0,60,0.00,,,0.00,meteohub,2013-01-18 13:17:00,
2013-01-18 08:22:00,22.3,10.9,30.33,NW,310,0.0,0.0,61,0.00,,,0.00,meteohub,2013-01-18 13:22:00,
2013-01-18 08:27:00,22.5,11.1,30.34,NW,310,0.0,0.0,61,0.00,,,0.00,meteohub,2013-01-18 13:27:00,
2013-01-18 08:32:00,22.6,10.4,30.35,NW,310,0.0,0.0,59,0.00,,,0.00,meteohub,2013-01-18 13:32:00,
2013-01-18 08:37:00,22.6,9.3,30.35,NW,310,0.0,0.0,56,0.00,,,0.00,meteohub,2013-01-18 13:37:00,
2013-01-18 08:42:00,22.6,10.0,30.35,NW,310,0.0,0.0,58,0.00,,,0.00,meteohub,2013-01-18 13:42:00,
2013-01-18 08:47:00,22.8,9.9,30.35,NW,310,0.0,0.0,57,0.00,,,0.00,meteohub,2013-01-18 13:47:00,
2013-01-18 08:52:00,23.4,10.0,30.36,NW,310,0.0,0.0,56,0.00,,,0.00,meteohub,2013-01-18 13:52:00,
2013-01-18 08:57:00,23.5,10.2,30.36,NW,310,0.0,0.0,56,0.00,,,0.00,meteohub,2013-01-18 13:57:00,
2013-01-18 09:02:00,23.7,9.9,30.36,NW,310,0.0,0.0,55,0.00,,,0.00,meteohub,2013-01-18 14:02:00,
2013-01-18 09:07:00,23.7,9.5,30.36,NW,310,0.0,0.0,54,0.00,,,0.00,meteohub,2013-01-18 14:07:00,
2013-01-18 09:12:00,23.7,10.4,30.37,NW,310,0.0,0.0,56,0.00,,,0.00,meteohub,2013-01-18 14:12:00,
2013-01-18 09:17:00,24.1,10.6,30.37,NW,310,0.0,0.0,56,0.00,,,0.00,meteohub,2013-01-18 14:17:00,
2013-01-18 09:22:00,24.4,10.2,30.37,NW,310,0.0,0.0,54,0.00,,,0.00,meteohub,2013-01-18 14:22:00,
2013-01-18 09:27:00,24.4,9.3,30.37,NW,310,0.0,0.0,52,0.00,,,0.00,meteohub,2013-01-18 14:27:00,
2013-01-18 09:32:00,24.3,8.8,30.38,NW,310,0.0,0.0,51,0.00,,,0.00,meteohub,2013-01-18 14:32:00,
2013-01-18 09:37:00,24.3,9.1,30.38,NW,310,0.0,0.0,52,0.00,,,0.00,meteohub,2013-01-18 14:37:00,
2013-01-18 09:42:00,24.3,8.8,30.39,NW,310,0.0,0.0,51,0.00,,,0.00,meteohub,2013-01-18 14:42:00,
2013-01-18 09:47:00,24.3,8.8,30.39,NW,310,0.0,0.0,51,0.00,,,0.00,meteohub,2013-01-18 14:47:00,
2013-01-18 09:52:00,24.1,9.0,30.40,NW,310,0.0,0.0,52,0.00,,,0.00,meteohub,2013-01-18 14:52:00,
2013-01-18 09:57:00,24.3,8.8,30.40,NW,310,0.0,0.0,51,0.00,,,0.00,meteohub,2013-01-18 14:57:00,
2013-01-18 10:02:00,24.4,9.0,30.39,NW,310,0.0,0.0,51,0.00,,,0.00,meteohub,2013-01-18 15:02:00,
2013-01-18 10:07:00,24.4,9.3,30.40,NW,310,0.0,0.0,52,0.00,,,0.00,meteohub,2013-01-18 15:07:00,
2013-01-18 10:12:00,24.4,9.3,30.40,NW,310,0.0,0.0,52,0.00,,,0.00,meteohub,2013-01-18 15:12:00,
2013-01-18 10:17:00,24.6,9.1,30.40,NW,310,0.0,0.0,51,0.00,,,0.00,meteohub,2013-01-18 15:17:00,
2013-01-18 10:22:00,25.0,9.3,30.41,NW,310,0.0,0.0,51,0.00,,,0.00,meteohub,2013-01-18 15:22:00,
2013-01-18 10:27:00,25.2,10.0,30.41,NW,310,0.0,0.0,52,0.00,,,0.00,meteohub,2013-01-18 15:27:00,
2013-01-18 10:32:00,25.2,9.5,30.41,NW,310,0.0,0.0,51,0.00,,,0.00,meteohub,2013-01-18 15:32:00,
2013-01-18 10:37:00,25.0,9.3,30.41,NW,310,0.0,0.0,51,0.00,,,0.00,meteohub,2013-01-18 15:37:00,
2013-01-18 10:42:00,25.0,9.9,30.41,NW,310,0.0,0.0,52,0.00,,,0.00,meteohub,2013-01-18 15:42:00,
2013-01-18 10:47:00,25.3,8.8,30.41,NW,310,0.0,0.0,49,0.00,,,0.00,meteohub,2013-01-18 15:47:00,
2013-01-18 10:52:00,25.2,8.6,30.41,NW,310,0.0,0.0,49,0.00,,,0.00,meteohub,2013-01-18 15:52:00,
2013-01-18 10:57:00,24.8,7.9,30.41,NW,310,0.0,0.0,48,0.00,,,0.00,meteohub,2013-01-18 15:57:00,
2013-01-18 11:02:00,24.6,7.7,30.41,NW,310,0.0,0.0,48,0.00,,,0.00,meteohub,2013-01-18 16:02:00,
2013-01-18 11:07:00,25.0,9.3,30.41,NW,310,0.0,0.0,51,0.00,,,0.00,meteohub,2013-01-18 16:07:00,
2013-01-18 11:13:00,25.3,9.3,30.40,NW,310,0.0,0.0,50,0.00,,,0.00,meteohub,2013-01-18 16:13:00,
2013-01-18 11:18:00,25.3,8.8,30.40,NW,310,0.0,0.0,49,0.00,,,0.00,meteohub,2013-01-18 16:18:00,
2013-01-18 11:23:00,25.3,8.8,30.40,NW,310,0.0,0.0,49,0.00,,,0.00,meteohub,2013-01-18 16:23:00,
2013-01-18 11:28:00,25.3,9.3,30.41,NW,310,0.0,0.0,50,0.00,,,0.00,meteohub,2013-01-18 16:28:00,
2013-01-18 11:33:00,25.3,9.3,30.40,NW,310,0.0,0.0,50,0.00,,,0.00,meteohub,2013-01-18 16:33:00,
2013-01-18 11:38:00,25.3,8.4,30.40,NW,310,0.0,0.0,48,0.00,,,0.00,meteohub,2013-01-18 16:38:00,
2013-01-18 11:43:00,25.3,8.4,30.40,NW,310,0.0,0.0,48,0.00,,,0.00,meteohub,2013-01-18 16:43:00,
2013-01-18 11:49:00,25.2,9.5,30.40,NW,310,0.0,0.0,51,0.00,,,0.00,meteohub,2013-01-18 16:49:00,
2013-01-18 11:54:00,25.3,9.3,30.40,NW,310,0.0,0.0,50,0.00,,,0.00,meteohub,2013-01-18 16:54:00,
2013-01-18 11:59:00,25.2,9.1,30.40,NW,310,0.0,0.0,50,0.00,,,0.00,meteohub,2013-01-18 16:59:00,
2013-01-18 12:04:00,25.3,9.3,30.40,NW,310,0.0,0.0,50,0.00,,,0.00,meteohub,2013-01-18 17:04:00,
2013-01-18 12:09:00,25.3,8.8,30.41,NW,310,0.0,0.0,49,0.00,,,0.00,meteohub,2013-01-18 17:09:00,
2013-01-18 12:14:00,25.9,9.3,30.40,NW,310,0.0,0.0,49,0.00,,,0.00,meteohub,2013-01-18 17:14:00,
2013-01-18 12:20:00,26.1,9.1,30.40,NW,310,0.0,0.0,48,0.00,,,0.00,meteohub,2013-01-18 17:20:00,
2013-01-18 12:25:00,26.2,9.1,30.40,NW,310,0.0,0.0,48,0.00,,,0.00,meteohub,2013-01-18 17:25:00,
2013-01-18 12:30:00,26.4,10.8,30.40,NW,310,0.0,0.0,51,0.00,,,0.00,meteohub,2013-01-18 17:30:00,
2013-01-18 12:35:00,26.8,10.2,30.40,NW,310,0.0,0.0,49,0.00,,,0.00,meteohub,2013-01-18 17:35:00,
2013-01-18 12:40:00,27.1,10.9,30.40,NW,310,0.0,0.0,50,0.00,,,0.00,meteohub,2013-01-18 17:40:00,
2013-01-18 12:45:00,27.3,9.7,30.40,NW,310,0.0,0.0,47,0.00,,,0.00,meteohub,2013-01-18 17:45:00,
2013-01-18 12:50:00,27.9,9.7,30.40,NW,310,0.0,0.0,46,0.00,,,0.00,meteohub,2013-01-18 17:50:00,
2013-01-18 12:56:00,27.9,9.3,30.41,NW,310,0.0,0.0,45,0.00,,,0.00,meteohub,2013-01-18 17:56:00,
2013-01-18 13:01:00,27.7,8.6,30.42,NW,310,0.0,0.0,44,0.00,,,0.00,meteohub,2013-01-18 18:01:00,
2013-01-18 13:06:00,27.5,9.5,30.41,NW,310,0.0,0.0,46,0.00,,,0.00,meteohub,2013-01-18 18:06:00,
2013-01-18 13:11:00,27.3,9.3,30.41,NW,310,0.0,0.0,46,0.00,,,0.00,meteohub,2013-01-18 18:11:00,
2013-01-18 13:16:00,27.3,6.8,30.42,NW,310,0.0,0.0,41,0.00,,,0.00,meteohub,2013-01-18 18:16:00,
2013-01-18 13:21:00,27.3,7.7,30.42,NW,310,0.0,0.0,43,0.00,,,0.00,meteohub,2013-01-18 18:21:00,
2013-01-18 13:26:00,27.0,7.0,30.41,NW,310,0.0,0.0,42,0.00,,,0.00,meteohub,2013-01-18 18:26:00,
2013-01-18 13:31:00,27.0,7.0,30.41,NW,310,0.0,0.0,42,0.00,,,0.00,meteohub,2013-01-18 18:31:00,
2013-01-18 13:36:00,26.8,7.7,30.41,NW,310,0.0,0.0,44,0.00,,,0.00,meteohub,2013-01-18 18:36:00,
2013-01-18 13:41:00,27.0,9.0,30.41,NW,310,0.0,0.0,46,0.00,,,0.00,meteohub,2013-01-18 18:41:00,
2013-01-18 13:47:00,27.3,8.8,30.41,NW,310,0.0,0.0,45,0.00,,,0.00,meteohub,2013-01-18 18:47:00,
2013-01-18 13:52:00,27.7,8.1,30.41,NW,310,0.0,0.0,43,0.00,,,0.00,meteohub,2013-01-18 18:52:00,
2013-01-18 13:57:00,27.7,8.6,30.41,NW,310,0.0,0.0,44,0.00,,,0.00,meteohub,2013-01-18 18:57:00,
2013-01-18 14:02:00,27.7,7.5,30.42,NW,310,0.0,0.0,42,0.00,,,0.00,meteohub,2013-01-18 19:02:00,
2013-01-18 14:07:00,27.9,8.2,30.42,NW,310,0.0,0.0,43,0.00,,,0.00,meteohub,2013-01-18 19:07:00,
2013-01-18 14:12:00,27.5,6.3,30.42,NW,310,0.0,0.0,40,0.00,,,0.00,meteohub,2013-01-18 19:12:00,
2013-01-18 14:17:00,27.0,5.9,30.43,NW,310,0.0,0.0,40,0.00,,,0.00,meteohub,2013-01-18 19:17:00,
2013-01-18 14:22:00,27.0,7.9,30.43,NW,310,0.0,0.0,44,0.00,,,0.00,meteohub,2013-01-18 19:22:00,
2013-01-18 14:27:00,27.0,7.0,30.43,NW,310,0.0,0.0,42,0.00,,,0.00,meteohub,2013-01-18 19:27:00,
2013-01-18 14:32:00,27.0,9.0,30.43,NW,310,0.0,0.0,46,0.00,,,0.00,meteohub,2013-01-18 19:32:00,
2013-01-18 14:37:00,26.8,6.8,30.43,NW,310,0.0,0.0,42,0.00,,,0.00,meteohub,2013-01-18 19:37:00,
2013-01-18 14:42:00,26.8,7.7,30.43,NW,310,0.0,0.0,44,0.00,,,0.00,meteohub,2013-01-18 19:42:00,
2013-01-18 14:47:00,26.8,7.3,30.43,NW,310,0.0,0.0,43,0.00,,,0.00,meteohub,2013-01-18 19:47:00,
2013-01-18 14:52:00,26.8,6.3,30.43,NW,310,0.0,0.0,41,0.00,,,0.00,meteohub,2013-01-18 19:52:00,
2013-01-18 14:58:00,26.8,6.8,30.43,NW,310,0.0,0.0,42,0.00,,,0.00,meteohub,2013-01-18 19:58:00,
2013-01-18 15:03:00,26.8,6.8,30.43,NW,310,0.0,0.0,42,0.00,,,0.00,meteohub,2013-01-18 20:03:00,
2013-01-18 15:08:00,26.8,8.8,30.43,NW,310,0.0,0.0,46,0.00,,,0.00,meteohub,2013-01-18 20:08:00,
2013-01-18 15:13:00,26.8,6.8,30.44,NW,310,0.0,0.0,42,0.00,,,0.00,meteohub,2013-01-18 20:13:00,
2013-01-18 15:18:00,26.6,6.6,30.44,NW,310,0.0,0.0,42,0.00,,,0.00,meteohub,2013-01-18 20:18:00,
2013-01-18 15:23:00,26.4,5.9,30.44,NW,310,0.0,0.0,41,0.00,,,0.00,meteohub,2013-01-18 20:23:00,
2013-01-18 15:29:00,26.4,7.0,30.44,NW,310,0.0,0.0,43,0.00,,,0.00,meteohub,2013-01-18 20:29:00,
2013-01-18 15:34:00,26.2,6.8,30.43,NW,310,0.0,0.0,43,0.00,,,0.00,meteohub,2013-01-18 20:34:00,
2013-01-18 15:39:00,26.1,7.7,30.43,NW,310,0.0,0.0,45,0.00,,,0.00,meteohub,2013-01-18 20:39:00,
2013-01-18 15:44:00,26.1,7.7,30.43,NW,310,0.0,0.0,45,0.00,,,0.00,meteohub,2013-01-18 20:44:00,
2013-01-18 15:49:00,25.9,7.9,30.43,NW,310,0.0,0.0,46,0.00,,,0.00,meteohub,2013-01-18 20:49:00,
2013-01-18 15:55:00,25.7,5.7,30.43,NW,310,0.0,0.0,42,0.00,,,0.00,meteohub,2013-01-18 20:55:00,
2013-01-18 16:00:00,25.5,8.1,30.44,NW,310,0.0,0.0,47,0.00,,,0.00,meteohub,2013-01-18 21:00:00,
2013-01-18 16:05:00,25.5,7.7,30.44,NW,310,0.0,0.0,46,0.00,,,0.00,meteohub,2013-01-18 21:05:00,
2013-01-18 16:10:00,25.3,7.0,30.44,NW,310,0.0,0.0,45,0.00,,,0.00,meteohub,2013-01-18 21:10:00,
2013-01-18 16:15:00,25.3,7.5,30.44,NW,310,0.0,0.0,46,0.00,,,0.00,meteohub,2013-01-18 21:15:00,
2013-01-18 16:21:00,25.3,8.4,30.44,NW,310,0.0,0.0,48,0.00,,,0.00,meteohub,2013-01-18 21:21:00,
2013-01-18 16:26:00,25.2,8.2,30.44,NW,310,0.0,0.0,48,0.00,,,0.00,meteohub,2013-01-18 21:26:00,
2013-01-18 16:31:00,25.2,9.1,30.44,NW,310,0.0,0.0,50,0.00,,,0.00,meteohub,2013-01-18 21:31:00,
2013-01-18 16:36:00,25.0,9.0,30.44,NW,310,0.0,0.0,50,0.00,,,0.00,meteohub,2013-01-18 21:36:00,
2013-01-18 16:41:00,24.8,8.8,30.45,NW,310,0.0,0.0,50,0.00,,,0.00,meteohub,2013-01-18 21:41:00,
2013-01-18 16:46:00,24.6,9.1,30.45,NW,310,0.0,0.0,51,0.00,,,0.00,meteohub,2013-01-18 21:46:00,
2013-01-18 16:51:00,24.4,8.4,30.45,NW,310,0.0,0.0,50,0.00,,,0.00,meteohub,2013-01-18 21:51:00,
2013-01-18 16:56:00,24.4,8.1,30.45,NW,310,0.0,0.0,49,0.00,,,0.00,meteohub,2013-01-18 21:56:00,
2013-01-18 17:01:00,24.3,8.2,30.45,NW,310,0.0,0.0,50,0.00,,,0.00,meteohub,2013-01-18 22:01:00,
2013-01-18 17:07:00,24.1,8.1,30.45,NW,310,0.0,0.0,50,0.00,,,0.00,meteohub,2013-01-18 22:07:00,
2013-01-18 17:12:00,23.9,7.9,30.45,NW,310,0.0,0.0,50,0.00,,,0.00,meteohub,2013-01-18 22:12:00,
2013-01-18 17:17:00,23.7,8.2,30.45,NW,310,0.0,0.0,51,0.00,,,0.00,meteohub,2013-01-18 22:17:00,
2013-01-18 17:22:00,23.7,9.5,30.45,NW,310,0.0,0.0,54,0.00,,,0.00,meteohub,2013-01-18 22:22:00,
2013-01-18 17:27:00,23.5,10.9,30.45,NW,310,0.0,0.0,58,0.00,,,0.00,meteohub,2013-01-18 22:27:00,
2013-01-18 17:32:00,23.4,9.5,30.45,NW,310,0.0,0.0,55,0.00,,,0.00,meteohub,2013-01-18 22:32:00,
2013-01-18 17:37:00,23.2,7.7,30.46,NW,310,0.0,0.0,51,0.00,,,0.00,meteohub,2013-01-18 22:37:00,
2013-01-18 17:42:00,22.8,7.9,30.46,NW,310,0.0,0.0,52,0.00,,,0.00,meteohub,2013-01-18 22:42:00,
2013-01-18 17:47:00,22.6,7.7,30.46,NW,310,0.0,0.0,52,0.00,,,0.00,meteohub,2013-01-18 22:47:00,
2013-01-18 17:52:00,22.5,7.9,30.47,NW,310,0.0,0.0,53,0.00,,,0.00,meteohub,2013-01-18 22:52:00,
2013-01-18 17:57:00,22.3,8.2,30.47,NW,310,0.0,0.0,54,0.00,,,0.00,meteohub,2013-01-18 22:57:00,
2013-01-18 18:02:00,22.1,8.8,30.47,NW,310,0.0,0.0,56,0.00,,,0.00,meteohub,2013-01-18 23:02:00,
2013-01-18 18:07:00,21.9,9.0,30.48,NW,310,0.0,0.0,57,0.00,,,0.00,meteohub,2013-01-18 23:07:00,
2013-01-18 18:12:00,21.7,9.7,30.48,NW,310,0.0,0.0,59,0.00,,,0.00,meteohub,2013-01-18 23:12:00,
2013-01-18 18:17:00,21.6,10.9,30.48,NW,310,0.0,0.0,63,0.00,,,0.00,meteohub,2013-01-18 23:17:00,
2013-01-18 18:22:00,21.4,10.0,30.48,NW,310,0.0,0.0,61,0.00,,,0.00,meteohub,2013-01-18 23:22:00,
2013-01-18 18:27:00,21.0,9.7,30.49,NW,310,0.0,0.0,61,0.00,,,0.00,meteohub,2013-01-18 23:27:00,
2013-01-18 18:32:00,20.8,9.9,30.49,NW,310,0.0,0.0,62,0.00,,,0.00,meteohub,2013-01-18 23:32:00,
2013-01-18 18:37:00,20.8,10.2,30.49,NW,310,0.0,0.0,63,0.00,,,0.00,meteohub,2013-01-18 23:37:00,
2013-01-18 18:42:00,20.7,10.0,30.50,NW,310,0.0,0.0,63,0.00,,,0.00,meteohub,2013-01-18 23:42:00,
2013-01-18 18:47:00,20.7,10.0,30.50,NW,310,0.0,0.0,63,0.00,,,0.00,meteohub,2013-01-18 23:47:00,
2013-01-18 18:53:00,20.5,10.2,30.49,NW,310,0.0,0.0,64,0.00,,,0.00,meteohub,2013-01-18 23:53:00,
2013-01-18 18:58:00,20.3,10.4,30.50,NW,310,0.0,0.0,65,0.00,,,0.00,meteohub,2013-01-18 23:58:00,
2013-01-18 19:03:00,20.1,10.6,30.50,NW,310,0.0,0.0,66,0.00,,,0.00,meteohub,2013-01-19 00:03:00,
2013-01-18 19:08:00,20.1,10.2,30.49,NW,310,0.0,0.0,65,0.00,,,0.00,meteohub,2013-01-19 00:08:00,
2013-01-18 19:13:00,19.9,9.7,30.50,NW,310,0.0,0.0,64,0.00,,,0.00,meteohub,2013-01-19 00:13:00,
2013-01-18 19:18:00,19.9,9.0,30.49,NW,310,0.0,0.0,62,0.00,,,0.00,meteohub,2013-01-19 00:18:00,
2013-01-18 19:24:00,19.9,9.3,30.50,NW,310,0.0,0.0,63,0.00,,,0.00,meteohub,2013-01-19 00:24:00,
2013-01-18 19:29:00,19.9,9.7,30.49,NW,310,0.0,0.0,64,0.00,,,0.00,meteohub,2013-01-19 00:29:00,
2013-01-18 19:34:00,19.8,9.9,30.50,NW,310,0.0,0.0,65,0.00,,,0.00,meteohub,2013-01-19 00:34:00,
2013-01-18 19:39:00,19.8,10.2,30.49,NW,310,0.0,0.0,66,0.00,,,0.00,meteohub,2013-01-19 00:39:00,
2013-01-18 19:44:00,19.8,10.9,30.49,NW,310,0.0,0.0,68,0.00,,,0.00,meteohub,2013-01-19 00:44:00,
2013-01-18 19:49:00,19.8,11.3,30.49,NW,310,0.0,0.0,69,0.00,,,0.00,meteohub,2013-01-19 00:49:00,
2013-01-18 19:54:00,19.4,12.6,30.49,NW,310,0.0,0.0,74,0.00,,,0.00,meteohub,2013-01-19 00:54:00,
2013-01-18 20:00:00,19.2,11.7,30.48,NW,310,0.0,0.0,72,0.00,,,0.00,meteohub,2013-01-19 01:00:00,
2013-01-18 20:05:00,19.2,12.0,30.49,NW,310,0.0,0.0,73,0.00,,,0.00,meteohub,2013-01-19 01:05:00,
2013-01-18 20:10:00,19.0,12.2,30.49,NW,310,0.0,0.0,74,0.00,,,0.00,meteohub,2013-01-19 01:10:00,
2013-01-18 20:15:00,18.9,11.7,30.48,NW,310,0.0,0.0,73,0.00,,,0.00,meteohub,2013-01-19 01:15:00,
2013-01-18 20:20:00,18.7,11.1,30.48,NW,310,0.0,0.0,72,0.00,,,0.00,meteohub,2013-01-19 01:20:00,
2013-01-18 20:25:00,18.5,10.9,30.48,NW,310,0.0,0.0,72,0.00,,,0.00,meteohub,2013-01-19 01:25:00,
2013-01-18 20:30:00,18.3,9.9,30.48,NW,310,0.0,0.0,69,0.00,,,0.00,meteohub,2013-01-19 01:30:00,
2013-01-18 20:36:00,18.3,10.8,30.48,NW,310,0.0,0.0,72,0.00,,,0.00,meteohub,2013-01-19 01:36:00,
2013-01-18 20:41:00,18.3,12.4,30.48,NW,310,0.0,0.0,77,0.00,,,0.00,meteohub,2013-01-19 01:41:00,
2013-01-18 20:46:00,18.1,11.8,30.48,NW,310,0.0,0.0,76,0.00,,,0.00,meteohub,2013-01-19 01:46:00,
2013-01-18 20:51:00,18.1,11.5,30.48,NW,310,0.0,0.0,75,0.00,,,0.00,meteohub,2013-01-19 01:51:00,
2013-01-18 20:56:00,18.0,12.0,30.48,NW,310,0.0,0.0,77,0.00,,,0.00,meteohub,2013-01-19 01:56:00,
2013-01-18 21:02:00,18.0,12.0,30.48,NW,310,0.0,0.0,77,0.00,,,0.00,meteohub,2013-01-19 02:02:00,
2013-01-18 21:07:00,17.8,11.8,30.48,NW,310,0.0,0.0,77,0.00,,,0.00,meteohub,2013-01-19 02:07:00,
2013-01-18 21:12:00,17.8,11.8,30.47,NW,310,0.0,0.0,77,0.00,,,0.00,meteohub,2013-01-19 02:12:00,
2013-01-18 21:17:00,17.6,11.7,30.47,NW,310,0.0,0.0,77,0.00,,,0.00,meteohub,2013-01-19 02:17:00,
2013-01-18 21:22:00,17.4,11.5,30.47,NW,310,0.0,0.0,77,0.00,,,0.00,meteohub,2013-01-19 02:22:00,
2013-01-18 21:27:00,17.4,11.7,30.47,NW,310,0.0,0.0,78,0.00,,,0.00,meteohub,2013-01-19 02:27:00,
2013-01-18 21:32:00,17.4,12.0,30.47,NW,310,0.0,0.0,79,0.00,,,0.00,meteohub,2013-01-19 02:32:00,
2013-01-18 21:37:00,17.2,12.2,30.47,NW,310,0.0,0.0,80,0.00,,,0.00,meteohub,2013-01-19 02:37:00,
2013-01-18 21:42:00,17.2,12.4,30.47,NW,310,0.0,0.0,81,0.00,,,0.00,meteohub,2013-01-19 02:42:00,
2013-01-18 21:48:00,17.2,12.4,30.46,NW,310,0.0,0.0,81,0.00,,,0.00,meteohub,2013-01-19 02:48:00,
2013-01-18 21:53:00,17.1,12.2,30.46,NW,310,0.0,0.0,81,0.00,,,0.00,meteohub,2013-01-19 02:53:00,
2013-01-18 21:58:00,16.9,12.0,30.45,NW,310,0.0,0.0,81,0.00,,,0.00,meteohub,2013-01-19 02:58:00,
2013-01-18 22:03:00,16.9,12.0,30.45,NW,310,0.0,0.0,81,0.00,,,0.00,meteohub,2013-01-19 03:03:00,
2013-01-18 22:08:00,16.7,11.8,30.44,NW,310,0.0,0.0,81,0.00,,,0.00,meteohub,2013-01-19 03:08:00,
2013-01-18 22:13:00,16.7,12.2,30.45,NW,310,0.0,0.0,82,0.00,,,0.00,meteohub,2013-01-19 03:13:00,
2013-01-18 22:18:00,16.5,12.0,30.45,NW,310,0.0,0.0,82,0.00,,,0.00,meteohub,2013-01-19 03:18:00,
2013-01-18 22:23:00,16.7,12.4,30.45,NW,310,0.0,0.0,83,0.00,,,0.00,meteohub,2013-01-19 03:23:00,
2013-01-18 22:28:00,17.1,12.7,30.45,NW,310,0.0,0.0,83,0.00,,,0.00,meteohub,2013-01-19 03:28:00,
2013-01-18 22:33:00,17.1,12.7,30.45,NW,310,0.0,0.0,83,0.00,,,0.00,meteohub,2013-01-19 03:33:00,
2013-01-18 22:39:00,17.2,12.9,30.45,NW,310,0.0,0.0,83,0.00,,,0.00,meteohub,2013-01-19 03:39:00,
2013-01-18 22:44:00,17.6,13.1,30.45,NW,310,0.0,0.0,82,0.00,,,0.00,meteohub,2013-01-19 03:44:00,
2013-01-18 22:49:00,18.3,13.3,30.45,NW,310,0.0,0.0,80,0.00,,,0.00,meteohub,2013-01-19 03:49:00,
2013-01-18 22:54:00,18.7,13.5,30.45,NW,310,0.0,0.0,80,0.00,,,0.00,meteohub,2013-01-19 03:54:00,
2013-01-18 22:59:00,19.4,13.6,30.45,NW,310,0.0,0.0,78,0.00,,,0.00,meteohub,2013-01-19 03:59:00,
2013-01-18 23:04:00,20.3,14.2,30.44,NW,310,0.0,0.0,77,0.00,,,0.00,meteohub,2013-01-19 04:04:00,
2013-01-18 23:09:00,21.0,14.0,30.44,NW,310,0.0,0.0,74,0.00,,,0.00,meteohub,2013-01-19 04:09:00,
2013-01-18 23:14:00,21.6,14.5,30.44,NW,310,0.0,0.0,74,0.00,,,0.00,meteohub,2013-01-19 04:14:00,
2013-01-18 23:19:00,22.3,14.7,30.44,NW,310,0.0,0.0,72,0.00,,,0.00,meteohub,2013-01-19 04:19:00,
2013-01-18 23:24:00,22.6,14.7,30.44,NW,310,0.0,0.0,71,0.00,,,0.00,meteohub,2013-01-19 04:24:00,
2013-01-18 23:30:00,23.4,15.1,30.44,NW,310,0.0,0.0,70,0.00,,,0.00,meteohub,2013-01-19 04:30:00,
2013-01-18 23:35:00,23.7,14.7,30.44,NW,310,0.0,0.0,68,0.00,,,0.00,meteohub,2013-01-19 04:35:00,
2013-01-18 23:40:00,24.3,15.3,30.44,NW,310,0.0,0.0,68,0.00,,,0.00,meteohub,2013-01-19 04:40:00,
2013-01-18 23:45:00,24.6,15.3,30.43,NW,310,0.0,0.0,67,0.00,,,0.00,meteohub,2013-01-19 04:45:00,
2013-01-18 23:50:00,25.2,15.8,30.43,NW,310,0.0,0.0,67,0.00,,,0.00,meteohub,2013-01-19 04:50:00,
2013-01-18 23:55:00,25.2,15.4,30.43,NW,310,0.0,0.0,66,0.00,,,0.00,meteohub,2013-01-19 04:55:00,